createdAt,value
2022-09-12T00:00:43.124Z,14.63
2022-09-12T00:02:45.696Z,14.63
2022-09-12T00:04:49.779Z,14.57
2022-09-12T00:06:52.350Z,14.51
2022-09-12T00:08:56.847Z,14.53
2022-09-12T00:10:59.448Z,14.53
2022-09-12T00:13:01.989Z,14.52
2022-09-12T00:15:05.531Z,14.48
2022-09-12T00:17:08.088Z,14.47
2022-09-12T00:19:11.133Z,14.51
2022-09-12T00:21:15.668Z,14.51
2022-09-12T00:23:18.197Z,14.48
2022-09-12T00:25:20.781Z,14.47
2022-09-12T00:27:23.377Z,14.42
2022-09-12T00:29:26.258Z,14.39
2022-09-12T00:31:29.421Z,14.34
2022-09-12T00:33:32.213Z,14.35
2022-09-12T00:35:34.785Z,14.35
2022-09-12T00:37:38.690Z,14.34
2022-09-12T00:39:41.510Z,14.34
2022-09-12T00:41:45.162Z,14.33
2022-09-12T00:43:49.185Z,14.33
2022-09-12T00:45:51.812Z,14.26
2022-09-12T00:47:55.089Z,14.29
2022-09-12T00:50:04.739Z,14.22
2022-09-12T00:52:11.041Z,14.13
2022-09-12T00:54:18.202Z,14.15
2022-09-12T00:56:22.862Z,14.10
2022-09-12T00:58:28.954Z,14.07
2022-09-12T01:00:31.704Z,14.08
2022-09-12T01:02:34.495Z,14.07
2022-09-12T01:04:39.667Z,14.08
2022-09-12T01:06:44.399Z,14.09
2022-09-12T01:08:49.113Z,14.08
2022-09-12T01:10:53.525Z,14.09
2022-09-12T01:12:56.320Z,14.09
2022-09-12T01:14:59.753Z,14.13
2022-09-12T01:17:02.532Z,14.11
2022-09-12T01:19:21.391Z,14.11
2022-09-12T01:21:34.747Z,14.14
2022-09-12T01:24:22.717Z,14.06
2022-09-12T01:27:01.131Z,14.05
2022-09-12T01:29:22.917Z,14.01
2022-09-12T01:31:35.079Z,14.01
2022-09-12T01:33:48.751Z,13.97
2022-09-12T01:36:03.691Z,13.91
2022-09-12T01:38:12.759Z,13.90
2022-09-12T01:40:23.958Z,13.88
2022-09-12T01:42:34.470Z,13.85
2022-09-12T01:44:47.735Z,13.86
2022-09-12T01:46:59.073Z,13.87
2022-09-12T01:49:08.181Z,13.84
2022-09-12T01:51:17.967Z,13.83
2022-09-12T01:53:27.154Z,13.80
2022-09-12T01:55:33.530Z,13.77
2022-09-12T01:57:42.086Z,13.75
2022-09-12T01:59:48.689Z,13.75
2022-09-12T02:01:59.815Z,13.76
2022-09-12T02:04:09.726Z,13.79
2022-09-12T02:06:19.887Z,13.73
2022-09-12T02:08:27.590Z,13.71
2022-09-12T02:10:33.125Z,13.69
2022-09-12T02:12:43.519Z,13.65
2022-09-12T02:14:50.077Z,13.65
2022-09-12T02:16:57.933Z,13.65
2022-09-12T02:19:06.441Z,13.62
2022-09-12T02:21:09.711Z,13.59
2022-09-12T02:23:15.944Z,13.56
2022-09-12T02:25:20.826Z,13.57
2022-09-12T02:27:27.060Z,13.58
2022-09-12T02:29:30.168Z,13.55
2022-09-12T02:31:39.470Z,13.58
2022-09-12T02:33:50.555Z,13.57
2022-09-12T02:35:59.148Z,13.53
2022-09-12T02:38:05.560Z,13.54
2022-09-12T02:40:09.775Z,13.56
2022-09-12T02:42:12.604Z,13.59
2022-09-12T02:44:15.298Z,13.67
2022-09-12T02:46:21.224Z,13.64
2022-09-12T02:48:27.677Z,13.64
2022-09-12T02:50:32.618Z,13.67
2022-09-12T02:52:36.451Z,13.68
2022-09-12T02:54:39.150Z,13.63
2022-09-12T02:56:43.343Z,13.65
2022-09-12T02:58:46.486Z,13.59
2022-09-12T03:00:57.556Z,13.58
2022-09-12T03:03:21.738Z,13.59
2022-09-12T03:05:30.348Z,13.62
2022-09-12T03:07:54.208Z,13.62
2022-09-12T03:10:04.775Z,13.58
2022-09-12T03:12:24.335Z,13.55
2022-09-12T03:14:44.653Z,13.52
2022-09-12T03:16:57.987Z,13.50
2022-09-12T03:19:07.333Z,13.48
2022-09-12T03:21:17.586Z,13.50
2022-09-12T03:23:30.163Z,13.45
2022-09-12T03:25:37.249Z,13.41
2022-09-12T03:27:44.257Z,13.42
2022-09-12T03:29:48.944Z,13.47
2022-09-12T03:31:55.294Z,13.45
2022-09-12T03:33:57.870Z,13.44
2022-09-12T03:36:03.380Z,13.38
2022-09-12T03:38:07.952Z,13.37
2022-09-12T03:40:13.065Z,13.37
2022-09-12T03:42:15.649Z,13.39
2022-09-12T03:44:18.559Z,13.38
2022-09-12T03:46:21.201Z,13.44
2022-09-12T03:48:23.748Z,13.46
2022-09-12T03:50:26.318Z,13.46
2022-09-12T03:52:29.176Z,13.45
2022-09-12T03:54:31.741Z,13.49
2022-09-12T03:56:36.016Z,13.52
2022-09-12T03:58:39.406Z,13.50
2022-09-12T04:00:43.038Z,13.50
2022-09-12T04:02:45.590Z,13.49
2022-09-12T04:04:48.861Z,13.46
2022-09-12T04:06:51.418Z,13.50
2022-09-12T04:08:55.556Z,13.47
2022-09-12T04:11:04.172Z,13.47
2022-09-12T04:13:08.136Z,13.41
2022-09-12T04:15:11.496Z,13.38
2022-09-12T04:17:14.139Z,13.34
2022-09-12T04:19:16.761Z,13.36
2022-09-12T04:21:21.825Z,13.40
2022-09-12T04:23:24.421Z,13.46
2022-09-12T04:25:28.247Z,13.46
2022-09-12T04:27:30.927Z,13.44
2022-09-12T04:29:35.646Z,13.45
2022-09-12T04:31:38.560Z,13.41
2022-09-12T04:33:41.152Z,13.39
2022-09-12T04:35:45.287Z,13.37
2022-09-12T04:37:47.904Z,13.35
2022-09-12T04:39:50.692Z,13.33
2022-09-12T04:41:53.288Z,13.23
2022-09-12T04:43:59.149Z,13.09
2022-09-12T04:46:07.438Z,13.10
2022-09-12T04:48:09.989Z,13.06
2022-09-12T04:50:12.516Z,13.06
2022-09-12T04:52:15.067Z,13.02
2022-09-12T04:54:19.892Z,13.01
2022-09-12T04:56:23.762Z,13.04
2022-09-12T04:58:26.331Z,13.10
2022-09-12T05:00:29.048Z,13.07
2022-09-12T05:02:34.351Z,13.09
2022-09-12T05:04:36.992Z,13.10
2022-09-12T05:06:40.320Z,13.10
2022-09-12T05:08:43.000Z,13.08
2022-09-12T05:10:45.654Z,13.09
2022-09-12T05:12:48.330Z,13.12
2022-09-12T05:14:50.892Z,13.11
2022-09-12T05:16:53.792Z,13.16
2022-09-12T05:18:58.374Z,13.12
2022-09-12T05:21:02.117Z,13.10
2022-09-12T05:23:04.632Z,12.95
2022-09-12T05:25:08.588Z,12.97
2022-09-12T05:27:11.131Z,12.93
2022-09-12T05:29:14.085Z,12.97
2022-09-12T05:31:18.991Z,12.98
2022-09-12T05:33:24.996Z,12.94
2022-09-12T05:35:29.258Z,12.86
2022-09-12T05:37:31.835Z,12.89
2022-09-12T05:39:34.391Z,12.90
2022-09-12T05:41:37.185Z,12.92
2022-09-12T05:43:41.425Z,12.99
2022-09-12T05:45:44.059Z,13.05
2022-09-12T05:47:48.048Z,13.05
2022-09-12T05:49:52.926Z,13.05
2022-09-12T05:51:56.807Z,13.14
2022-09-12T05:54:01.261Z,13.13
2022-09-12T05:56:08.208Z,13.10
2022-09-12T05:58:10.757Z,13.09
2022-09-12T06:00:17.301Z,13.11
2022-09-12T06:02:19.939Z,13.09
2022-09-12T06:04:23.702Z,13.05
2022-09-12T06:06:27.722Z,12.82
2022-09-12T06:08:32.069Z,12.89
2022-09-12T06:10:35.339Z,12.91
2022-09-12T06:12:37.888Z,13.04
2022-09-12T06:14:40.399Z,13.09
2022-09-12T06:16:43.505Z,13.14
2022-09-12T06:18:49.188Z,13.20
2022-09-12T06:20:51.720Z,13.18
2022-09-12T06:22:54.327Z,13.22
2022-09-12T06:24:58.255Z,13.25
2022-09-12T06:27:02.290Z,13.28
2022-09-12T06:29:04.982Z,13.30
2022-09-12T06:31:10.654Z,13.32
2022-09-12T06:33:13.315Z,13.37
2022-09-12T06:35:16.137Z,13.35
2022-09-12T06:37:18.719Z,13.21
2022-09-12T06:39:23.256Z,13.18
2022-09-12T06:41:27.883Z,13.16
2022-09-12T06:43:30.587Z,13.08
2022-09-12T06:45:33.209Z,13.11
2022-09-12T06:47:35.757Z,12.88
2022-09-12T06:49:38.510Z,13.05
2022-09-12T06:51:43.294Z,13.05
2022-09-12T06:53:46.781Z,13.15
2022-09-12T06:55:56.199Z,12.91
2022-09-12T06:58:00.169Z,13.11
2022-09-12T07:00:04.378Z,13.26
2022-09-12T07:02:07.327Z,13.31
2022-09-12T07:04:10.361Z,13.42
2022-09-12T07:06:14.514Z,13.30
2022-09-12T07:08:16.992Z,13.43
2022-09-12T07:10:22.312Z,13.42
2022-09-12T07:12:25.063Z,13.53
2022-09-12T07:14:28.921Z,13.69
2022-09-12T07:16:32.248Z,13.60
2022-09-12T07:18:35.383Z,13.65
2022-09-12T07:20:39.237Z,13.69
2022-09-12T07:22:41.965Z,13.67
2022-09-12T07:24:45.791Z,13.74
2022-09-12T07:26:48.617Z,13.72
2022-09-12T07:28:52.743Z,13.52
2022-09-12T07:30:56.777Z,13.58
2022-09-12T07:32:59.371Z,13.51
2022-09-12T07:35:01.932Z,13.25
2022-09-12T07:37:07.473Z,13.32
2022-09-12T07:39:10.492Z,13.44
2022-09-12T07:41:13.733Z,13.58
2022-09-12T07:43:16.247Z,13.75
2022-09-12T07:45:18.762Z,13.86
2022-09-12T07:47:22.654Z,13.91
2022-09-12T07:49:25.601Z,13.99
2022-09-12T07:51:29.929Z,14.07
2022-09-12T07:53:35.259Z,14.14
2022-09-12T07:55:37.914Z,14.20
2022-09-12T07:57:40.504Z,14.23
2022-09-12T07:59:52.531Z,14.29
2022-09-12T08:01:58.611Z,14.37
2022-09-12T08:04:04.693Z,14.42
2022-09-12T08:06:09.379Z,14.47
2022-09-12T08:08:12.052Z,14.42
2022-09-12T08:10:16.219Z,14.45
2022-09-12T08:12:20.258Z,14.48
2022-09-12T08:14:22.833Z,14.48
2022-09-12T08:16:31.063Z,14.54
2022-09-12T08:18:34.306Z,14.51
2022-09-12T08:20:38.205Z,14.57
2022-09-12T08:22:40.829Z,14.63
2022-09-12T08:24:43.774Z,14.66
2022-09-12T08:26:46.608Z,14.79
2022-09-12T08:28:49.274Z,14.84
2022-09-12T08:30:52.105Z,14.87
2022-09-12T08:32:54.725Z,14.92
2022-09-12T08:34:57.257Z,14.97
2022-09-12T08:37:01.151Z,15.02
2022-09-12T08:39:06.751Z,15.05
2022-09-12T08:41:16.203Z,15.18
2022-09-12T08:43:34.249Z,15.18
2022-09-12T08:45:44.072Z,15.20
2022-09-12T08:47:48.059Z,15.21
2022-09-12T08:49:57.359Z,15.24
2022-09-12T08:52:11.527Z,15.27
2022-09-12T08:54:21.204Z,15.31
2022-09-12T08:56:26.477Z,15.36
2022-09-12T08:58:35.231Z,15.38
2022-09-12T09:00:45.857Z,15.41
2022-09-12T09:03:11.771Z,15.44
2022-09-12T09:05:21.105Z,15.47
2022-09-12T09:07:46.677Z,15.50
2022-09-12T09:10:07.955Z,15.54
2022-09-12T09:12:18.926Z,15.58
2022-09-12T09:14:47.859Z,15.67
2022-09-12T09:16:53.704Z,15.72
2022-09-12T09:18:59.493Z,15.75
2022-09-12T09:21:06.816Z,15.79
2022-09-12T09:23:16.147Z,15.83
2022-09-12T09:25:23.728Z,15.87
2022-09-12T09:27:41.399Z,15.93
2022-09-12T09:29:49.023Z,15.98
2022-09-12T09:31:55.882Z,16.03
2022-09-12T09:33:58.630Z,16.11
2022-09-12T09:36:12.027Z,16.15
2022-09-12T09:38:24.827Z,16.18
2022-09-12T09:40:35.966Z,16.22
2022-09-12T09:42:44.837Z,16.28
2022-09-12T09:44:49.223Z,16.30
2022-09-12T09:46:56.419Z,16.34
2022-09-12T09:49:03.060Z,16.38
2022-09-12T09:51:09.172Z,16.42
2022-09-12T09:53:23.512Z,16.46
2022-09-12T09:55:35.210Z,16.69
2022-09-12T09:57:44.612Z,16.68
2022-09-12T09:59:47.169Z,16.68
2022-09-12T10:01:53.731Z,16.72
2022-09-12T10:03:57.668Z,16.73
2022-09-12T10:06:02.089Z,16.74
2022-09-12T10:08:08.106Z,16.78
2022-09-12T10:10:17.163Z,16.83
2022-09-12T10:12:29.192Z,16.88
2022-09-12T10:14:37.874Z,16.91
2022-09-12T10:16:53.274Z,16.94
2022-09-12T10:18:57.152Z,16.99
2022-09-12T10:21:01.637Z,17.00
2022-09-12T10:23:30.188Z,17.02
2022-09-12T10:25:32.789Z,17.05
2022-09-12T10:27:37.019Z,17.07
2022-09-12T10:29:45.754Z,17.10
2022-09-12T10:31:52.124Z,17.14
2022-09-12T10:33:55.610Z,17.18
2022-09-12T10:36:04.610Z,17.23
2022-09-12T10:38:08.414Z,17.24
2022-09-12T10:40:25.197Z,17.26
2022-09-12T10:42:48.224Z,17.30
2022-09-12T10:44:55.553Z,17.46
2022-09-12T10:46:59.890Z,17.66
2022-09-12T10:49:22.328Z,17.58
2022-09-12T10:51:29.201Z,17.60
2022-09-12T10:53:41.093Z,17.63
2022-09-12T10:55:55.454Z,17.64
2022-09-12T10:58:15.548Z,17.70
2022-09-12T11:00:27.394Z,17.72
2022-09-12T11:02:30.407Z,17.75
2022-09-12T11:04:47.560Z,17.79
2022-09-12T11:07:03.569Z,17.84
2022-09-12T11:09:15.107Z,17.90
2022-09-12T11:11:34.754Z,18.00
2022-09-12T11:13:54.696Z,18.06
2022-09-12T11:16:13.592Z,18.10
2022-09-12T11:18:33.993Z,18.22
2022-09-12T11:21:02.073Z,18.22
2022-09-12T11:23:33.280Z,18.27
2022-09-12T11:25:46.232Z,18.33
2022-09-12T11:28:01.632Z,18.37
2022-09-12T11:30:10.812Z,18.41
2022-09-12T11:32:38.271Z,18.43
2022-09-12T11:34:53.602Z,18.45
2022-09-12T11:37:11.001Z,18.51
2022-09-12T11:39:16.574Z,18.53
2022-09-12T11:41:24.524Z,18.56
2022-09-12T11:43:33.991Z,18.60
2022-09-12T11:45:43.158Z,18.64
2022-09-12T11:47:50.877Z,18.78
2022-09-12T11:49:55.702Z,18.74
2022-09-12T11:52:04.497Z,18.79
2022-09-12T11:54:16.504Z,18.82
2022-09-12T11:56:19.740Z,18.82
2022-09-12T11:58:26.907Z,18.82
2022-09-12T12:00:34.965Z,18.85
2022-09-12T12:02:45.467Z,18.88
2022-09-12T12:05:02.861Z,18.93
2022-09-12T12:07:08.729Z,18.97
2022-09-12T12:09:13.769Z,18.97
2022-09-12T12:11:25.598Z,18.98
2022-09-12T12:13:31.256Z,19.02
2022-09-12T12:15:39.113Z,19.05
2022-09-12T12:17:43.512Z,19.14
2022-09-12T12:19:47.009Z,19.23
2022-09-12T12:21:51.783Z,19.33
2022-09-12T12:24:05.265Z,19.44
2022-09-12T12:26:58.994Z,19.61
2022-09-12T12:29:02.070Z,19.82
2022-09-12T12:31:05.481Z,20.07
2022-09-12T12:33:51.828Z,20.39
2022-09-12T12:36:05.036Z,20.71
2022-09-12T12:38:29.089Z,21.06
2022-09-12T12:40:32.782Z,21.45
2022-09-12T12:43:08.847Z,22.01
2022-09-12T12:45:44.862Z,22.52
2022-09-12T12:47:50.392Z,23.00
2022-09-12T12:49:59.965Z,23.38
2022-09-12T12:52:02.965Z,23.95
2022-09-12T12:54:26.717Z,24.46
2022-09-12T12:56:36.051Z,25.05
2022-09-12T12:58:41.146Z,25.52
2022-09-12T13:00:47.101Z,26.04
2022-09-12T13:02:53.232Z,26.47
2022-09-12T13:04:59.607Z,26.90
2022-09-12T13:07:08.373Z,27.29
2022-09-12T13:09:22.469Z,27.65
2022-09-12T13:11:31.828Z,28.05
2022-09-12T13:13:39.629Z,28.51
2022-09-12T13:15:52.180Z,28.90
2022-09-12T13:17:59.984Z,29.23
2022-09-12T13:20:27.385Z,29.51
2022-09-12T13:22:41.137Z,29.83
2022-09-12T13:24:44.217Z,30.04
2022-09-12T13:26:49.408Z,30.31
2022-09-12T13:29:09.425Z,30.44
2022-09-12T13:31:21.401Z,30.64
2022-09-12T13:33:32.679Z,30.78
2022-09-12T13:35:50.413Z,30.82
2022-09-12T13:38:03.255Z,30.78
2022-09-12T13:40:24.315Z,30.72
2022-09-12T13:42:41.539Z,30.61
2022-09-12T13:44:46.852Z,30.67
2022-09-12T13:46:50.854Z,30.46
2022-09-12T13:48:53.767Z,30.40
2022-09-12T13:51:00.002Z,30.24
2022-09-12T13:53:05.792Z,30.29
2022-09-12T13:55:16.390Z,30.31
2022-09-12T13:57:30.801Z,30.19
2022-09-12T13:59:39.543Z,30.07
2022-09-12T14:01:44.911Z,29.95
2022-09-12T14:04:09.175Z,29.77
2022-09-12T14:06:16.013Z,29.55
2022-09-12T14:08:19.369Z,29.41
2022-09-12T14:10:28.115Z,29.22
2022-09-12T14:12:35.182Z,29.13
2022-09-12T14:14:43.919Z,28.97
2022-09-12T14:16:47.130Z,28.89
2022-09-12T14:18:51.589Z,28.84
2022-09-12T14:20:57.105Z,28.72
2022-09-12T14:23:03.938Z,28.56
2022-09-12T14:25:10.813Z,28.41
2022-09-12T14:27:15.515Z,28.25
2022-09-12T14:29:18.888Z,28.12
2022-09-12T14:31:25.091Z,28.02
2022-09-12T14:33:27.692Z,28.07
2022-09-12T14:35:32.475Z,28.07
2022-09-12T14:37:35.473Z,28.04
2022-09-12T14:39:42.368Z,28.04
2022-09-12T14:41:46.192Z,28.03
2022-09-12T14:43:54.184Z,27.96
2022-09-12T14:46:00.328Z,27.83
2022-09-12T14:48:03.259Z,27.78
2022-09-12T14:50:16.705Z,27.68
2022-09-12T14:52:26.769Z,27.69
2022-09-12T14:54:42.738Z,27.88
2022-09-12T14:56:54.329Z,27.91
2022-09-12T14:59:30.204Z,27.93
2022-09-12T15:01:32.948Z,27.83
2022-09-12T15:03:36.998Z,27.76
2022-09-12T15:05:49.879Z,27.71
2022-09-12T15:07:55.872Z,27.61
2022-09-12T15:10:01.557Z,27.56
2022-09-12T15:12:04.147Z,27.50
2022-09-12T15:14:13.421Z,27.48
2022-09-12T15:16:16.140Z,27.57
2022-09-12T15:18:19.980Z,27.71
2022-09-12T15:20:23.331Z,27.73
2022-09-12T15:22:26.288Z,27.72
2022-09-12T15:24:28.917Z,27.70
2022-09-12T15:26:33.213Z,27.68
2022-09-12T15:28:35.752Z,27.68
2022-09-12T15:30:38.464Z,27.59
2022-09-12T15:32:43.094Z,27.53
2022-09-12T15:34:45.620Z,27.44
2022-09-12T15:36:48.153Z,27.32
2022-09-12T15:38:51.613Z,27.27
2022-09-12T15:40:54.587Z,27.21
2022-09-12T15:42:58.916Z,27.19
2022-09-12T15:45:02.725Z,27.29
2022-09-12T15:47:05.861Z,27.22
2022-09-12T15:49:08.576Z,27.20
2022-09-12T15:51:15.470Z,27.22
2022-09-12T15:53:18.743Z,27.13
2022-09-12T15:55:23.765Z,27.10
2022-09-12T15:57:26.354Z,26.97
2022-09-12T15:59:31.115Z,26.86
2022-09-12T16:01:33.730Z,26.66
2022-09-12T16:03:36.292Z,26.49
2022-09-12T16:05:38.941Z,26.34
2022-09-12T16:07:41.485Z,26.22
2022-09-12T16:09:44.034Z,26.08
2022-09-12T16:11:46.971Z,25.93
2022-09-12T16:13:49.637Z,25.82
2022-09-12T16:15:53.754Z,25.66
2022-09-12T16:17:56.343Z,25.52
2022-09-12T16:19:58.983Z,25.39
2022-09-12T16:22:01.559Z,25.28
2022-09-12T16:24:04.872Z,25.18
2022-09-12T16:26:08.037Z,25.13
2022-09-12T16:28:10.638Z,25.01
2022-09-12T16:30:14.429Z,24.89
2022-09-12T16:32:18.451Z,24.81
2022-09-12T16:34:20.994Z,24.72
2022-09-12T16:36:24.061Z,24.61
2022-09-12T16:38:26.566Z,24.53
2022-09-12T16:40:29.132Z,24.43
2022-09-12T16:42:32.069Z,24.36
2022-09-12T16:44:34.622Z,24.29
2022-09-12T16:46:37.213Z,24.19
2022-09-12T16:48:50.947Z,24.10
2022-09-12T16:50:57.834Z,24.00
2022-09-12T16:53:00.358Z,23.90
2022-09-12T16:55:02.921Z,23.82
2022-09-12T16:57:06.519Z,23.73
2022-09-12T16:59:12.056Z,23.68
2022-09-12T17:01:16.653Z,23.59
2022-09-12T17:03:19.185Z,23.53
2022-09-12T17:05:23.064Z,23.46
2022-09-12T17:07:25.679Z,23.37
2022-09-12T17:09:29.313Z,23.28
2022-09-12T17:11:33.698Z,23.20
2022-09-12T17:14:00.109Z,23.14
2022-09-12T17:15:59.427Z,23.07
2022-09-12T17:18:02.158Z,23.00
2022-09-12T17:20:05.203Z,22.92
2022-09-12T17:22:09.105Z,22.87
2022-09-12T17:24:11.871Z,22.79
2022-09-12T17:26:14.892Z,22.71
2022-09-12T17:28:17.540Z,22.65
2022-09-12T17:30:20.165Z,22.62
2022-09-12T17:32:22.741Z,22.60
2022-09-12T17:34:25.259Z,22.53
2022-09-12T17:36:29.475Z,22.45
2022-09-12T17:38:35.180Z,22.38
2022-09-12T17:40:58.642Z,22.29
2022-09-12T17:43:01.898Z,22.21
2022-09-12T17:45:05.065Z,22.17
2022-09-12T17:47:07.734Z,22.15
2022-09-12T17:49:13.778Z,22.09
2022-09-12T17:51:16.375Z,22.01
2022-09-12T17:53:18.915Z,21.95
2022-09-12T17:55:22.751Z,21.89
2022-09-12T17:57:25.766Z,21.84
2022-09-12T17:59:28.497Z,21.76
2022-09-12T18:01:49.686Z,21.66
2022-09-12T18:03:55.561Z,21.56
2022-09-12T18:05:58.189Z,21.46
2022-09-12T18:08:00.755Z,21.39
2022-09-12T18:10:03.324Z,21.36
2022-09-12T18:12:08.071Z,21.34
2022-09-12T18:14:14.021Z,21.28
2022-09-12T18:16:17.466Z,21.26
2022-09-12T18:18:20.030Z,21.23
2022-09-12T18:20:22.761Z,21.21
2022-09-12T18:22:25.316Z,21.18
2022-09-12T18:24:28.174Z,21.17
2022-09-12T18:26:31.931Z,21.13
2022-09-12T18:28:38.536Z,21.09
2022-09-12T18:30:42.387Z,21.06
2022-09-12T18:32:44.904Z,21.01
2022-09-12T18:34:47.434Z,20.97
2022-09-12T18:36:54.219Z,20.95
2022-09-12T18:38:59.154Z,20.91
2022-09-12T18:41:05.837Z,20.92
2022-09-12T18:43:08.365Z,20.90
2022-09-12T18:45:12.719Z,20.90
2022-09-12T18:47:15.711Z,20.88
2022-09-12T18:49:18.429Z,20.87
2022-09-12T18:51:23.430Z,20.85
2022-09-12T18:53:26.103Z,20.84
2022-09-12T18:55:28.665Z,20.82
2022-09-12T18:57:34.891Z,20.78
2022-09-12T18:59:40.051Z,20.75
2022-09-12T19:01:44.351Z,20.74
2022-09-12T19:03:47.584Z,20.71
2022-09-12T19:05:50.204Z,20.71
2022-09-12T19:07:52.832Z,20.67
2022-09-12T19:09:55.743Z,20.65
2022-09-12T19:11:58.292Z,20.62
2022-09-12T19:14:00.990Z,20.60
2022-09-12T19:16:05.633Z,20.56
2022-09-12T19:18:09.742Z,20.56
2022-09-12T19:20:12.313Z,20.53
2022-09-12T19:22:14.845Z,20.50
2022-09-12T19:24:17.732Z,20.46
2022-09-12T19:26:22.146Z,20.43
2022-09-12T19:28:24.765Z,20.40
2022-09-12T19:30:28.699Z,20.38
2022-09-12T19:32:34.149Z,20.37
2022-09-12T19:34:38.701Z,20.35
2022-09-12T19:36:45.268Z,20.31
2022-09-12T19:38:48.291Z,20.31
2022-09-12T19:40:58.023Z,20.26
2022-09-12T19:43:00.615Z,20.24
2022-09-12T19:45:03.144Z,20.22
2022-09-12T19:47:06.812Z,20.18
2022-09-12T19:49:11.166Z,20.15
2022-09-12T19:51:16.006Z,20.13
2022-09-12T19:53:19.175Z,20.10
2022-09-12T19:55:22.286Z,20.09
2022-09-12T19:57:25.593Z,20.07
2022-09-12T19:59:28.120Z,20.02
2022-09-12T20:01:30.806Z,19.99
2022-09-12T20:03:33.769Z,19.94
2022-09-12T20:05:40.735Z,19.90
2022-09-12T20:07:46.713Z,19.85
2022-09-12T20:09:49.325Z,19.79
2022-09-12T20:11:51.980Z,19.74
2022-09-12T20:13:54.723Z,19.68
2022-09-12T20:15:58.963Z,19.66
2022-09-12T20:18:01.635Z,19.65
2022-09-12T20:20:05.367Z,19.61
2022-09-12T20:22:08.038Z,19.61
2022-09-12T20:24:15.712Z,19.62
2022-09-12T20:26:20.074Z,19.59
2022-09-12T20:28:22.890Z,19.58
2022-09-12T20:30:25.781Z,19.56
2022-09-12T20:32:28.910Z,19.54
2022-09-12T20:34:31.439Z,19.53
2022-09-12T20:36:34.335Z,19.52
2022-09-12T20:38:37.441Z,19.51
2022-09-12T20:40:48.914Z,19.47
2022-09-12T20:42:51.449Z,19.44
2022-09-12T20:44:53.974Z,19.42
2022-09-12T20:46:56.631Z,19.40
2022-09-12T20:48:59.426Z,19.38
2022-09-12T20:51:02.189Z,19.34
2022-09-12T20:53:05.248Z,19.31
2022-09-12T20:55:08.798Z,19.28
2022-09-12T20:57:12.683Z,19.22
2022-09-12T20:59:17.791Z,19.21
2022-09-12T21:01:21.203Z,19.19
2022-09-12T21:03:25.342Z,19.18
2022-09-12T21:05:27.980Z,19.17
2022-09-12T21:07:31.581Z,19.15
2022-09-12T21:09:34.166Z,19.15
2022-09-12T21:11:36.711Z,19.12
2022-09-12T21:13:40.888Z,19.12
2022-09-12T21:15:43.563Z,19.12
2022-09-12T21:17:46.119Z,19.12
2022-09-12T21:19:48.653Z,19.10
2022-09-12T21:21:51.250Z,19.10
2022-09-12T21:23:55.426Z,19.11
2022-09-12T21:25:59.997Z,19.12
2022-09-12T21:28:03.248Z,19.11
2022-09-12T21:30:11.503Z,19.09
2022-09-12T21:32:14.433Z,19.07
2022-09-12T21:34:17.021Z,19.05
2022-09-12T21:36:19.683Z,19.03
2022-09-12T21:38:22.317Z,19.02
2022-09-12T21:40:24.883Z,19.02
2022-09-12T21:42:28.205Z,19.00
2022-09-12T21:44:30.968Z,18.99
2022-09-12T21:46:34.852Z,19.02
2022-09-12T21:48:38.198Z,19.00
2022-09-12T21:50:40.738Z,18.99
2022-09-12T21:52:43.607Z,18.96
2022-09-12T21:54:46.146Z,18.93
2022-09-12T21:56:48.669Z,18.90
2022-09-12T21:58:51.225Z,18.89
2022-09-12T22:00:53.927Z,18.86
2022-09-12T22:02:57.959Z,18.84
2022-09-12T22:05:00.482Z,18.81
2022-09-12T22:07:03.127Z,18.79
2022-09-12T22:09:07.244Z,18.73
2022-09-12T22:11:10.701Z,18.72
2022-09-12T22:13:13.241Z,18.69
2022-09-12T22:15:39.580Z,18.66
2022-09-12T22:17:38.767Z,18.60
2022-09-12T22:19:42.621Z,18.58
2022-09-12T22:22:05.952Z,18.53
2022-09-12T22:24:27.799Z,18.49
2022-09-12T22:26:34.368Z,18.45
2022-09-12T22:28:36.874Z,18.39
2022-09-12T22:30:39.626Z,18.35
2022-09-12T22:32:42.183Z,18.33
2022-09-12T22:34:46.150Z,18.30
2022-09-12T22:36:49.488Z,18.25
2022-09-12T22:38:52.055Z,18.21
2022-09-12T22:40:54.607Z,18.15
2022-09-12T22:42:57.299Z,18.13
2022-09-12T22:44:59.840Z,18.10
2022-09-12T22:47:02.426Z,18.07
2022-09-12T22:49:05.620Z,18.01
2022-09-12T22:51:10.085Z,17.94
2022-09-12T22:53:12.705Z,17.90
2022-09-12T22:55:15.321Z,17.88
2022-09-12T22:57:18.028Z,17.86
2022-09-12T22:59:20.608Z,17.84
2022-09-12T23:01:23.928Z,17.83
2022-09-12T23:03:26.509Z,17.83
2022-09-12T23:05:29.166Z,17.82
2022-09-12T23:07:33.465Z,17.84
2022-09-12T23:09:35.992Z,17.83
2022-09-12T23:11:38.568Z,17.82
2022-09-12T23:13:43.659Z,17.79
2022-09-12T23:15:46.325Z,17.76
2022-09-12T23:17:49.063Z,17.76
2022-09-12T23:19:51.664Z,17.73
2022-09-12T23:21:54.180Z,17.68
2022-09-12T23:23:58.398Z,17.67
2022-09-12T23:26:05.993Z,17.61
2022-09-12T23:28:08.512Z,17.60
2022-09-12T23:30:12.118Z,17.58
2022-09-12T23:32:14.655Z,17.55
2022-09-12T23:34:17.287Z,17.52
2022-09-12T23:36:19.854Z,17.53
2022-09-12T23:38:22.544Z,17.54
2022-09-12T23:40:26.403Z,17.57
2022-09-12T23:42:28.905Z,17.59
2022-09-12T23:44:31.501Z,17.63
2022-09-12T23:46:34.188Z,17.66
2022-09-12T23:48:36.832Z,17.69
2022-09-12T23:50:39.418Z,17.72
2022-09-12T23:52:41.953Z,17.74
2022-09-12T23:54:44.533Z,17.76
2022-09-12T23:56:48.667Z,17.75
2022-09-12T23:58:51.304Z,17.75
